createdAt,value
2022-09-27T00:00:44.633Z,99.17
2022-09-27T00:03:11.522Z,100.00
2022-09-27T00:05:39.270Z,100.00
2022-09-27T00:08:06.192Z,100.00
2022-09-27T00:10:32.834Z,100.00
2022-09-27T00:12:59.673Z,100.00
2022-09-27T00:15:26.340Z,100.00
2022-09-27T00:17:53.180Z,100.00
2022-09-27T00:20:20.913Z,100.00
2022-09-27T00:22:48.988Z,100.00
2022-09-27T00:25:16.675Z,100.00
2022-09-27T00:27:43.385Z,100.00
2022-09-27T00:30:11.098Z,100.00
2022-09-27T00:32:38.120Z,100.00
2022-09-27T00:35:05.063Z,100.00
2022-09-27T00:37:31.884Z,100.00
2022-09-27T00:39:58.797Z,100.00
2022-09-27T00:42:25.613Z,100.00
2022-09-27T00:45:14.344Z,100.00
2022-09-27T00:47:49.671Z,100.00
2022-09-27T00:50:51.313Z,100.00
2022-09-27T00:53:23.756Z,100.00
2022-09-27T00:55:57.347Z,100.00
2022-09-27T00:58:30.183Z,100.00
2022-09-27T01:01:02.414Z,100.00
2022-09-27T01:03:51.413Z,100.00
2022-09-27T01:06:20.604Z,100.00
2022-09-27T01:08:48.057Z,100.00
2022-09-27T01:11:26.843Z,100.00
2022-09-27T01:14:27.522Z,100.00
2022-09-27T01:17:03.625Z,100.00
2022-09-27T01:20:12.405Z,100.00
2022-09-27T01:22:46.564Z,100.00
2022-09-27T01:25:38.191Z,100.00
2022-09-27T01:28:10.875Z,100.00
2022-09-27T01:30:48.348Z,100.00
2022-09-27T01:33:23.458Z,100.00
2022-09-27T01:36:07.194Z,100.00
2022-09-27T01:39:09.680Z,100.00
2022-09-27T01:42:21.270Z,100.00
2022-09-27T01:45:16.788Z,100.00
2022-09-27T01:48:01.824Z,100.00
2022-09-27T01:50:50.419Z,100.00
2022-09-27T01:53:23.075Z,100.00
2022-09-27T01:56:18.389Z,100.00
2022-09-27T01:59:00.825Z,99.61
2022-09-27T02:01:32.388Z,99.21
2022-09-27T02:04:02.171Z,99.23
2022-09-27T02:06:53.390Z,99.05
2022-09-27T02:09:35.674Z,98.34
2022-09-27T02:12:24.119Z,97.74
2022-09-27T02:15:02.017Z,97.99
2022-09-27T02:17:44.589Z,97.48
2022-09-27T02:20:26.237Z,98.33
2022-09-27T02:23:05.836Z,96.90
2022-09-27T02:25:58.408Z,95.22
2022-09-27T02:28:35.251Z,94.73
2022-09-27T02:31:02.890Z,95.15
2022-09-27T02:34:21.617Z,95.71
2022-09-27T02:36:48.508Z,94.90
2022-09-27T02:39:16.375Z,94.68
2022-09-27T02:41:43.442Z,93.74
2022-09-27T02:44:13.449Z,94.12
2022-09-27T02:46:49.966Z,93.34
2022-09-27T02:49:42.282Z,93.20
2022-09-27T02:52:42.796Z,93.07
2022-09-27T02:55:32.138Z,93.53
2022-09-27T02:58:17.189Z,92.90
2022-09-27T03:01:21.801Z,92.06
2022-09-27T03:04:06.683Z,91.10
2022-09-27T03:06:34.482Z,90.25
2022-09-27T03:09:01.208Z,90.33
2022-09-27T03:11:27.923Z,89.99
2022-09-27T03:14:08.293Z,89.14
2022-09-27T03:16:39.071Z,89.09
2022-09-27T03:19:28.708Z,89.80
2022-09-27T03:22:24.432Z,90.36
2022-09-27T03:24:51.248Z,89.03
2022-09-27T03:27:17.816Z,88.26
2022-09-27T03:29:44.659Z,88.24
2022-09-27T03:32:11.667Z,87.49
2022-09-27T03:35:14.021Z,87.57
2022-09-27T03:37:41.426Z,88.47
2022-09-27T03:40:09.227Z,87.35
2022-09-27T03:42:38.521Z,85.97
2022-09-27T03:45:06.406Z,86.60
2022-09-27T03:47:32.996Z,87.17
2022-09-27T03:50:00.167Z,87.58
2022-09-27T03:52:26.877Z,87.61
2022-09-27T03:54:56.312Z,88.12
2022-09-27T03:57:25.592Z,87.23
2022-09-27T03:59:52.742Z,87.63
2022-09-27T04:02:42.406Z,87.36
2022-09-27T04:05:21.218Z,87.02
2022-09-27T04:07:48.399Z,86.52
2022-09-27T04:10:17.168Z,85.86
2022-09-27T04:12:44.471Z,85.48
2022-09-27T04:15:12.174Z,86.20
2022-09-27T04:17:51.468Z,85.82
2022-09-27T04:20:34.241Z,85.05
2022-09-27T04:23:05.204Z,85.64
2022-09-27T04:25:34.999Z,85.21
2022-09-27T04:28:08.921Z,86.02
2022-09-27T04:30:35.830Z,85.32
2022-09-27T04:33:11.433Z,84.44
2022-09-27T04:36:18.934Z,83.42
2022-09-27T04:39:11.971Z,84.09
2022-09-27T04:41:45.687Z,83.75
2022-09-27T04:44:13.249Z,83.94
2022-09-27T04:46:45.664Z,83.71
2022-09-27T04:49:12.918Z,83.34
2022-09-27T04:51:39.717Z,83.86
2022-09-27T04:54:06.451Z,83.38
2022-09-27T04:56:36.884Z,84.10
2022-09-27T04:59:09.819Z,83.30
2022-09-27T05:01:38.379Z,82.29
2022-09-27T05:04:30.362Z,82.69
2022-09-27T05:06:57.449Z,81.76
2022-09-27T05:09:40.208Z,81.87
2022-09-27T05:12:08.675Z,80.50
2022-09-27T05:14:56.579Z,80.33
2022-09-27T05:17:41.558Z,80.09
2022-09-27T05:20:26.979Z,79.21
2022-09-27T05:22:58.677Z,78.93
2022-09-27T05:25:25.733Z,79.43
2022-09-27T05:27:52.829Z,79.40
2022-09-27T05:30:20.085Z,79.43
2022-09-27T05:32:50.548Z,79.80
2022-09-27T05:35:38.620Z,80.13
2022-09-27T05:38:07.755Z,80.08
2022-09-27T05:40:41.439Z,81.01
2022-09-27T05:43:10.093Z,81.15
2022-09-27T05:45:36.941Z,80.82
2022-09-27T05:48:05.352Z,81.28
2022-09-27T05:50:36.609Z,81.17
2022-09-27T05:53:04.075Z,80.28
2022-09-27T05:55:30.890Z,80.59
2022-09-27T05:58:00.029Z,79.89
2022-09-27T06:00:38.841Z,80.20
2022-09-27T06:03:20.476Z,80.46
2022-09-27T06:06:06.459Z,79.91
2022-09-27T06:08:44.028Z,80.17
2022-09-27T06:11:13.391Z,79.39
2022-09-27T06:13:40.583Z,79.08
2022-09-27T06:16:11.689Z,78.89
2022-09-27T06:18:42.316Z,78.35
2022-09-27T06:21:09.735Z,77.29
2022-09-27T06:23:37.247Z,77.90
2022-09-27T06:26:12.410Z,77.82
2022-09-27T06:29:03.308Z,76.96
2022-09-27T06:31:32.198Z,76.86
2022-09-27T06:34:09.060Z,77.02
2022-09-27T06:36:35.815Z,76.59
2022-09-27T06:39:02.687Z,76.31
2022-09-27T06:41:40.029Z,76.09
2022-09-27T06:44:16.053Z,75.87
2022-09-27T06:47:01.545Z,76.14
2022-09-27T06:49:49.421Z,75.64
2022-09-27T06:52:18.064Z,75.54
2022-09-27T06:54:45.236Z,74.97
2022-09-27T06:57:32.038Z,75.26
2022-09-27T07:00:17.294Z,74.82
2022-09-27T07:03:11.431Z,74.70
2022-09-27T07:06:06.319Z,74.24
2022-09-27T07:08:45.039Z,74.17
2022-09-27T07:11:11.731Z,74.77
2022-09-27T07:13:42.723Z,74.55
2022-09-27T07:16:13.967Z,74.03
2022-09-27T07:18:44.614Z,74.09
2022-09-27T07:21:12.460Z,73.96
2022-09-27T07:23:39.695Z,73.68
2022-09-27T07:26:10.449Z,72.75
2022-09-27T07:28:37.564Z,73.74
2022-09-27T07:31:04.529Z,74.35
2022-09-27T07:33:32.241Z,74.13
2022-09-27T07:36:07.101Z,74.46
2022-09-27T07:38:34.314Z,74.91
2022-09-27T07:41:06.748Z,75.14
2022-09-27T07:43:33.543Z,75.06
2022-09-27T07:46:00.533Z,74.42
2022-09-27T07:48:38.038Z,75.35
2022-09-27T07:51:16.323Z,74.43
2022-09-27T07:53:52.572Z,75.09
2022-09-27T07:56:45.974Z,74.13
2022-09-27T07:59:14.532Z,73.71
2022-09-27T08:01:41.387Z,74.43
2022-09-27T08:04:08.108Z,74.34
2022-09-27T08:06:35.144Z,74.40
2022-09-27T08:09:03.119Z,73.72
2022-09-27T08:11:32.135Z,72.70
2022-09-27T08:13:58.877Z,73.13
2022-09-27T08:16:30.711Z,72.71
2022-09-27T08:19:17.108Z,72.86
2022-09-27T08:21:59.016Z,71.78
2022-09-27T08:24:29.715Z,71.63
2022-09-27T08:27:11.949Z,70.86
2022-09-27T08:29:47.792Z,70.77
2022-09-27T08:32:20.806Z,70.93
2022-09-27T08:34:50.201Z,70.53
2022-09-27T08:37:17.092Z,70.85
2022-09-27T08:39:47.731Z,70.42
2022-09-27T08:42:56.824Z,70.30
2022-09-27T08:45:38.967Z,70.02
2022-09-27T08:48:10.379Z,69.73
2022-09-27T08:50:44.389Z,70.14
2022-09-27T08:53:22.425Z,69.92
2022-09-27T08:55:52.638Z,70.13
2022-09-27T08:58:27.112Z,70.54
2022-09-27T09:00:59.730Z,71.79
2022-09-27T09:03:38.622Z,71.68
2022-09-27T09:06:21.261Z,72.06
2022-09-27T09:09:06.289Z,72.10
2022-09-27T09:12:32.646Z,71.33
2022-09-27T09:15:11.856Z,69.74
2022-09-27T09:18:17.821Z,68.42
2022-09-27T09:21:01.279Z,66.17
2022-09-27T09:23:37.780Z,65.40
2022-09-27T09:26:24.083Z,64.97
2022-09-27T09:29:27.392Z,64.94
2022-09-27T09:32:32.871Z,64.76
2022-09-27T09:35:06.241Z,64.65
2022-09-27T09:37:41.025Z,65.68
2022-09-27T09:40:23.678Z,66.18
2022-09-27T09:43:14.103Z,65.42
2022-09-27T09:45:45.927Z,65.34
2022-09-27T09:48:39.270Z,64.71
2022-09-27T09:51:10.977Z,64.49
2022-09-27T09:53:49.185Z,64.47
2022-09-27T09:56:24.570Z,65.12
2022-09-27T09:58:57.280Z,64.76
2022-09-27T10:01:36.001Z,64.97
2022-09-27T10:04:04.069Z,64.77
2022-09-27T10:06:31.668Z,65.92
2022-09-27T10:09:00.348Z,66.26
2022-09-27T10:11:50.126Z,67.33
2022-09-27T10:14:27.368Z,67.88
2022-09-27T10:17:01.744Z,67.73
2022-09-27T10:19:31.697Z,67.97
2022-09-27T10:22:14.337Z,67.29
2022-09-27T10:24:56.546Z,67.48
2022-09-27T10:27:49.493Z,67.37
2022-09-27T10:30:31.516Z,68.38
2022-09-27T10:33:07.537Z,68.88
2022-09-27T10:35:46.958Z,70.10
2022-09-27T10:38:31.120Z,70.28
2022-09-27T10:41:41.447Z,70.11
2022-09-27T10:44:32.803Z,71.92
2022-09-27T10:47:09.069Z,71.95
2022-09-27T10:49:46.501Z,71.65
2022-09-27T10:52:25.724Z,70.15
2022-09-27T10:55:05.729Z,69.67
2022-09-27T10:57:32.990Z,67.89
2022-09-27T11:00:08.323Z,69.10
2022-09-27T11:02:37.734Z,68.73
2022-09-27T11:05:29.601Z,68.20
2022-09-27T11:08:03.146Z,67.51
2022-09-27T11:10:40.313Z,66.72
2022-09-27T11:13:16.198Z,67.13
2022-09-27T11:16:23.130Z,66.47
2022-09-27T11:19:25.252Z,65.84
2022-09-27T11:22:02.476Z,66.28
2022-09-27T11:25:05.416Z,66.03
2022-09-27T11:27:45.684Z,64.85
2022-09-27T11:30:21.861Z,65.25
2022-09-27T11:33:27.366Z,65.04
2022-09-27T11:36:29.447Z,64.62
2022-09-27T11:39:12.738Z,65.95
2022-09-27T11:42:14.848Z,66.47
2022-09-27T11:45:37.257Z,67.52
2022-09-27T11:48:15.328Z,70.56
2022-09-27T11:50:56.706Z,71.30
2022-09-27T11:53:38.893Z,72.46
2022-09-27T11:56:41.336Z,67.93
2022-09-27T11:59:20.212Z,66.34
2022-09-27T12:01:57.222Z,64.42
2022-09-27T12:04:27.047Z,61.41
2022-09-27T12:07:12.718Z,61.36
2022-09-27T12:09:48.196Z,61.58
2022-09-27T12:12:21.691Z,61.91
2022-09-27T12:14:59.841Z,63.29
2022-09-27T12:17:36.066Z,65.66
2022-09-27T12:20:14.218Z,65.93
2022-09-27T12:23:01.036Z,66.74
2022-09-27T12:25:42.922Z,66.42
2022-09-27T12:28:33.892Z,63.62
2022-09-27T12:31:28.947Z,61.33
2022-09-27T12:34:30.159Z,59.98
2022-09-27T12:37:16.994Z,60.08
2022-09-27T12:40:21.544Z,58.82
2022-09-27T12:43:00.579Z,59.60
2022-09-27T12:46:27.333Z,59.90
2022-09-27T12:49:22.457Z,60.26
2022-09-27T12:51:57.621Z,60.85
2022-09-27T12:54:54.253Z,61.40
2022-09-27T12:57:33.040Z,62.09
2022-09-27T13:00:30.413Z,62.19
2022-09-27T13:03:26.304Z,61.19
2022-09-27T13:06:34.279Z,62.08
2022-09-27T13:09:19.915Z,62.40
2022-09-27T13:11:54.534Z,61.47
2022-09-27T13:14:26.358Z,60.84
2022-09-27T13:16:53.694Z,61.20
2022-09-27T13:19:37.708Z,61.63
2022-09-27T13:22:28.236Z,62.25
2022-09-27T13:25:55.538Z,61.23
2022-09-27T13:28:33.503Z,60.29
2022-09-27T13:31:10.930Z,60.33
2022-09-27T13:33:45.315Z,60.52
2022-09-27T13:36:28.257Z,62.17
2022-09-27T13:39:04.933Z,64.40
2022-09-27T13:42:04.678Z,67.88
2022-09-27T13:44:49.894Z,71.39
2022-09-27T13:47:38.126Z,68.66
2022-09-27T13:50:29.262Z,67.62
2022-09-27T13:53:23.542Z,67.46
2022-09-27T13:55:53.836Z,67.44
2022-09-27T13:58:35.559Z,65.23
2022-09-27T14:01:25.935Z,65.53
2022-09-27T14:03:56.580Z,68.63
2022-09-27T14:06:32.118Z,69.94
2022-09-27T14:09:04.876Z,71.94
2022-09-27T14:11:39.356Z,71.67
2022-09-27T14:14:14.062Z,73.06
2022-09-27T14:16:47.706Z,72.39
2022-09-27T14:19:18.691Z,72.78
2022-09-27T14:21:47.007Z,71.11
2022-09-27T14:24:31.845Z,72.98
2022-09-27T14:27:08.737Z,73.45
2022-09-27T14:30:02.762Z,73.49
2022-09-27T14:32:35.116Z,70.21
2022-09-27T14:35:32.372Z,70.56
2022-09-27T14:38:15.673Z,69.49
2022-09-27T14:41:01.999Z,71.46
2022-09-27T14:43:30.151Z,71.68
2022-09-27T14:46:01.973Z,71.01
2022-09-27T14:48:37.061Z,67.53
2022-09-27T14:51:14.587Z,67.23
2022-09-27T14:53:45.365Z,67.43
2022-09-27T14:56:19.239Z,67.93
2022-09-27T14:58:48.159Z,67.65
2022-09-27T15:01:23.680Z,68.96
2022-09-27T15:03:50.808Z,68.57
2022-09-27T15:06:18.347Z,68.46
2022-09-27T15:08:49.283Z,69.35
2022-09-27T15:11:19.102Z,70.32
2022-09-27T15:13:50.564Z,70.69
2022-09-27T15:16:20.715Z,70.40
2022-09-27T15:18:50.511Z,70.70
2022-09-27T15:21:29.271Z,71.54
2022-09-27T15:23:56.709Z,70.70
2022-09-27T15:26:27.178Z,72.71
2022-09-27T15:28:54.029Z,73.54
2022-09-27T15:32:00.833Z,75.67
2022-09-27T15:34:29.920Z,73.73
2022-09-27T15:37:03.440Z,73.40
2022-09-27T15:39:35.781Z,74.79
2022-09-27T15:42:10.015Z,75.77
2022-09-27T15:44:38.130Z,76.38
2022-09-27T15:47:05.175Z,76.61
2022-09-27T15:49:35.885Z,76.59
2022-09-27T15:52:05.139Z,76.53
2022-09-27T15:54:34.666Z,74.74
2022-09-27T15:57:05.450Z,74.09
2022-09-27T15:59:35.125Z,73.77
2022-09-27T16:02:17.309Z,74.72
2022-09-27T16:04:44.895Z,73.82
2022-09-27T16:07:14.896Z,74.00
2022-09-27T16:09:41.510Z,73.91
2022-09-27T16:12:09.012Z,74.26
2022-09-27T16:14:35.594Z,74.22
2022-09-27T16:17:02.263Z,74.21
2022-09-27T16:19:29.033Z,72.61
2022-09-27T16:21:55.655Z,72.54
2022-09-27T16:24:23.744Z,71.11
2022-09-27T16:26:50.763Z,70.20
2022-09-27T16:29:17.474Z,67.63
2022-09-27T16:31:44.310Z,68.68
2022-09-27T16:34:11.781Z,68.46
2022-09-27T16:36:39.663Z,68.20
2022-09-27T16:39:08.016Z,69.06
2022-09-27T16:41:34.805Z,68.82
2022-09-27T16:44:13.367Z,69.41
2022-09-27T16:46:41.774Z,68.62
2022-09-27T16:49:31.912Z,67.83
2022-09-27T16:52:01.935Z,68.48
2022-09-27T16:54:29.672Z,67.88
2022-09-27T16:56:58.024Z,68.28
2022-09-27T16:59:25.242Z,68.43
2022-09-27T17:01:52.525Z,68.47
2022-09-27T17:04:19.250Z,68.66
2022-09-27T17:06:46.133Z,69.40
2022-09-27T17:09:12.782Z,69.05
2022-09-27T17:11:39.430Z,70.71
2022-09-27T17:14:06.147Z,72.00
2022-09-27T17:16:33.282Z,71.95
2022-09-27T17:19:00.122Z,72.87
2022-09-27T17:21:26.818Z,72.02
2022-09-27T17:23:53.524Z,71.46
2022-09-27T17:26:22.281Z,72.54
2022-09-27T17:28:49.908Z,72.04
2022-09-27T17:31:18.769Z,72.61
2022-09-27T17:33:55.497Z,72.04
2022-09-27T17:36:28.061Z,72.38
2022-09-27T17:38:54.882Z,71.89
2022-09-27T17:41:24.395Z,72.01
2022-09-27T17:43:59.585Z,72.16
2022-09-27T17:46:34.570Z,71.64
2022-09-27T17:49:21.257Z,72.25
2022-09-27T17:51:50.203Z,72.83
2022-09-27T17:54:19.571Z,72.88
2022-09-27T17:56:47.074Z,73.15
2022-09-27T17:59:17.431Z,73.11
2022-09-27T18:01:47.712Z,72.53
2022-09-27T18:04:16.917Z,72.52
2022-09-27T18:06:46.159Z,72.85
2022-09-27T18:09:15.268Z,72.17
2022-09-27T18:11:42.688Z,72.00
2022-09-27T18:14:10.647Z,72.21
2022-09-27T18:16:42.859Z,72.38
2022-09-27T18:19:14.695Z,73.05
2022-09-27T18:21:41.437Z,73.39
2022-09-27T18:24:09.632Z,73.83
2022-09-27T18:26:38.341Z,73.54
2022-09-27T18:29:09.577Z,74.19
2022-09-27T18:31:36.473Z,74.65
2022-09-27T18:34:03.877Z,74.71
2022-09-27T18:36:30.662Z,76.26
2022-09-27T18:38:59.724Z,76.30
2022-09-27T18:41:29.125Z,76.25
2022-09-27T18:43:59.239Z,76.22
2022-09-27T18:46:36.191Z,76.25
2022-09-27T18:49:10.353Z,75.70
2022-09-27T18:51:39.865Z,76.46
2022-09-27T18:54:11.409Z,76.66
2022-09-27T18:56:41.220Z,76.87
2022-09-27T18:59:09.503Z,76.94
2022-09-27T19:01:39.623Z,77.18
2022-09-27T19:04:09.011Z,77.69
2022-09-27T19:06:37.107Z,77.14
2022-09-27T19:09:04.720Z,77.96
2022-09-27T19:11:31.883Z,77.78
2022-09-27T19:13:59.667Z,77.94
2022-09-27T19:16:27.830Z,77.60
2022-09-27T19:18:54.974Z,77.39
2022-09-27T19:21:24.791Z,78.33
2022-09-27T19:23:51.944Z,77.54
2022-09-27T19:26:21.429Z,78.39
2022-09-27T19:28:48.779Z,78.05
2022-09-27T19:31:18.648Z,77.53
2022-09-27T19:33:45.540Z,78.66
2022-09-27T19:36:16.567Z,77.58
2022-09-27T19:38:43.559Z,77.58
2022-09-27T19:41:12.901Z,77.28
2022-09-27T19:43:39.839Z,77.40
2022-09-27T19:46:13.037Z,77.37
2022-09-27T19:48:39.787Z,77.54
2022-09-27T19:51:07.410Z,77.38
2022-09-27T19:53:34.759Z,77.28
2022-09-27T19:56:07.011Z,76.48
2022-09-27T19:58:35.623Z,76.38
2022-09-27T20:01:08.007Z,76.52
2022-09-27T20:03:37.173Z,76.19
2022-09-27T20:06:07.073Z,76.86
2022-09-27T20:08:33.765Z,76.83
2022-09-27T20:11:09.977Z,76.38
2022-09-27T20:13:37.756Z,76.11
2022-09-27T20:16:10.822Z,76.30
2022-09-27T20:18:46.076Z,76.49
2022-09-27T20:21:13.112Z,76.08
2022-09-27T20:23:40.093Z,76.54
2022-09-27T20:26:13.053Z,76.30
2022-09-27T20:28:47.953Z,76.23
2022-09-27T20:31:17.828Z,77.15
2022-09-27T20:33:49.583Z,76.49
2022-09-27T20:36:20.571Z,77.13
2022-09-27T20:39:02.870Z,77.25
2022-09-27T20:41:32.662Z,77.07
2022-09-27T20:44:03.315Z,77.04
2022-09-27T20:46:30.769Z,77.20
2022-09-27T20:49:05.881Z,76.95
2022-09-27T20:51:35.605Z,77.65
2022-09-27T20:54:04.025Z,78.08
2022-09-27T20:56:34.893Z,79.15
2022-09-27T20:59:04.726Z,80.09
2022-09-27T21:01:32.574Z,80.41
2022-09-27T21:04:04.946Z,81.61
2022-09-27T21:06:32.662Z,81.60
2022-09-27T21:09:00.424Z,82.27
2022-09-27T21:11:27.420Z,82.42
2022-09-27T21:13:54.571Z,82.81
2022-09-27T21:16:27.475Z,83.64
2022-09-27T21:18:56.346Z,82.78
2022-09-27T21:21:24.537Z,82.95
2022-09-27T21:23:59.570Z,83.48
2022-09-27T21:26:28.724Z,83.23
2022-09-27T21:28:56.894Z,84.11
2022-09-27T21:31:29.830Z,83.44
2022-09-27T21:33:59.146Z,82.69
2022-09-27T21:36:28.273Z,83.32
2022-09-27T21:38:55.958Z,84.53
2022-09-27T21:41:22.979Z,84.91
2022-09-27T21:43:49.982Z,85.09
2022-09-27T21:46:20.630Z,85.32
2022-09-27T21:48:49.239Z,86.62
2022-09-27T21:51:21.270Z,85.62
2022-09-27T21:53:53.610Z,85.32
2022-09-27T21:56:21.938Z,85.71
2022-09-27T21:58:49.261Z,85.54
2022-09-27T22:01:18.858Z,84.74
2022-09-27T22:03:46.522Z,84.68
2022-09-27T22:06:17.102Z,85.63
2022-09-27T22:08:44.740Z,84.56
2022-09-27T22:11:14.971Z,83.73
2022-09-27T22:13:41.687Z,84.22
2022-09-27T22:16:14.265Z,85.26
2022-09-27T22:18:45.149Z,84.83
2022-09-27T22:21:17.089Z,84.69
2022-09-27T22:23:45.413Z,84.48
2022-09-27T22:26:18.152Z,84.99
2022-09-27T22:28:46.258Z,85.06
2022-09-27T22:31:15.767Z,85.79
2022-09-27T22:33:42.975Z,85.78
2022-09-27T22:36:09.804Z,86.21
2022-09-27T22:38:36.491Z,87.28
2022-09-27T22:41:03.309Z,85.43
2022-09-27T22:43:30.470Z,86.00
2022-09-27T22:45:57.664Z,86.47
2022-09-27T22:48:24.291Z,86.63
2022-09-27T22:50:51.031Z,85.01
2022-09-27T22:53:17.669Z,84.71
2022-09-27T22:55:44.236Z,85.68
2022-09-27T22:58:10.847Z,85.58
2022-09-27T23:00:38.656Z,85.57
2022-09-27T23:03:05.303Z,86.43
2022-09-27T23:05:31.884Z,86.14
2022-09-27T23:07:58.474Z,86.24
2022-09-27T23:10:25.223Z,86.62
2022-09-27T23:12:58.202Z,88.02
2022-09-27T23:15:24.864Z,85.65
2022-09-27T23:17:51.658Z,86.45
2022-09-27T23:20:18.649Z,86.81
2022-09-27T23:22:45.758Z,88.10
2022-09-27T23:25:13.198Z,89.35
2022-09-27T23:27:42.477Z,89.62
2022-09-27T23:30:09.885Z,90.45
2022-09-27T23:32:36.670Z,90.31
2022-09-27T23:35:04.138Z,91.40
2022-09-27T23:37:30.849Z,91.68
2022-09-27T23:39:57.566Z,91.36
2022-09-27T23:42:24.229Z,92.17
2022-09-27T23:44:52.577Z,93.76
2022-09-27T23:47:19.281Z,93.38
2022-09-27T23:49:45.962Z,92.95
2022-09-27T23:52:12.688Z,92.55
2022-09-27T23:54:39.259Z,93.48
2022-09-27T23:57:06.109Z,93.17
2022-09-27T23:59:32.749Z,94.08
